createdAt,value
2023-01-28T00:00:41.307Z,80.74
2023-01-28T00:01:41.364Z,81.09
2023-01-28T00:02:42.128Z,81.82
2023-01-28T00:03:41.548Z,83.87
2023-01-28T00:04:41.266Z,82.20
2023-01-28T00:05:41.395Z,81.99
2023-01-28T00:06:41.505Z,83.00
2023-01-28T00:07:41.362Z,83.31
2023-01-28T00:08:41.081Z,81.05
2023-01-28T00:09:41.355Z,82.72
2023-01-28T00:10:41.266Z,82.51
2023-01-28T00:11:41.165Z,82.37
2023-01-28T00:12:41.245Z,81.75
2023-01-28T00:13:41.204Z,81.96
2023-01-28T00:14:42.156Z,82.23
2023-01-28T00:15:41.117Z,81.71
2023-01-28T00:16:41.269Z,80.26
2023-01-28T00:17:40.889Z,79.25
2023-01-28T00:18:41.281Z,80.29
2023-01-28T00:19:41.002Z,81.02
2023-01-28T00:20:41.270Z,81.02
2023-01-28T00:21:40.991Z,79.87
2023-01-28T00:22:41.146Z,78.77
2023-01-28T00:23:42.088Z,79.80
2023-01-28T00:24:41.193Z,81.79
2023-01-28T00:25:40.887Z,82.31
2023-01-28T00:26:41.121Z,83.25
2023-01-28T00:27:40.988Z,82.58
2023-01-28T00:28:41.217Z,82.68
2023-01-28T00:29:40.881Z,83.31
2023-01-28T00:30:40.966Z,80.91
2023-01-28T00:31:41.137Z,80.95
2023-01-28T00:32:42.866Z,81.54
2023-01-28T00:33:40.918Z,81.05
2023-01-28T00:34:40.796Z,81.12
2023-01-28T00:35:40.868Z,81.23
2023-01-28T00:36:40.786Z,81.75
2023-01-28T00:37:40.990Z,80.71
2023-01-28T00:38:41.815Z,80.54
2023-01-28T00:39:41.037Z,81.58
2023-01-28T00:40:40.700Z,82.27
2023-01-28T00:41:40.844Z,83.10
2023-01-28T00:42:40.778Z,81.43
2023-01-28T00:43:41.085Z,81.54
2023-01-28T00:44:40.760Z,82.54
2023-01-28T00:45:40.802Z,81.29
2023-01-28T00:46:40.845Z,81.26
2023-01-28T00:47:40.604Z,81.15
2023-01-28T00:48:40.917Z,80.32
2023-01-28T00:49:40.605Z,81.05
2023-01-28T00:50:40.834Z,81.67
2023-01-28T00:51:40.655Z,79.28
2023-01-28T00:52:40.714Z,77.93
2023-01-28T00:53:41.615Z,79.49
2023-01-28T00:54:40.735Z,81.36
2023-01-28T00:55:40.716Z,80.84
2023-01-28T00:56:40.730Z,79.73
2023-01-28T00:57:40.555Z,80.53
2023-01-28T00:58:40.727Z,80.01
2023-01-28T00:59:40.689Z,78.55
2023-01-28T01:00:40.795Z,79.69
2023-01-28T01:01:40.827Z,80.84
2023-01-28T01:02:42.044Z,79.91
2023-01-28T01:03:40.674Z,78.66
2023-01-28T01:04:40.397Z,80.53
2023-01-28T01:05:40.595Z,80.32
2023-01-28T01:06:41.505Z,79.32
2023-01-28T01:07:40.736Z,79.94
2023-01-28T01:08:40.640Z,80.74
2023-01-28T01:09:40.682Z,80.01
2023-01-28T01:10:40.555Z,79.07
2023-01-28T01:11:40.619Z,78.34
2023-01-28T01:12:40.411Z,79.69
2023-01-28T01:13:40.572Z,78.90
2023-01-28T01:14:40.831Z,80.26
2023-01-28T01:15:40.557Z,79.46
2023-01-28T01:16:40.487Z,80.08
2023-01-28T01:17:40.336Z,81.12
2023-01-28T01:18:40.491Z,80.60
2023-01-28T01:19:40.320Z,80.40
2023-01-28T01:20:40.480Z,80.29
2023-01-28T01:21:40.393Z,82.03
2023-01-28T01:22:40.539Z,81.60
2023-01-28T01:23:40.393Z,80.22
2023-01-28T01:24:40.631Z,79.80
2023-01-28T01:25:40.241Z,79.17
2023-01-28T01:26:40.631Z,79.28
2023-01-28T01:27:40.438Z,79.00
2023-01-28T01:28:40.470Z,79.35
2023-01-28T01:29:41.573Z,79.91
2023-01-28T01:30:40.381Z,81.79
2023-01-28T01:31:40.271Z,80.95
2023-01-28T01:32:40.403Z,80.85
2023-01-28T01:33:40.279Z,81.47
2023-01-28T01:34:40.124Z,80.54
2023-01-28T01:35:40.203Z,80.54
2023-01-28T01:36:40.286Z,80.54
2023-01-28T01:37:40.264Z,81.09
2023-01-28T01:38:40.164Z,82.10
2023-01-28T01:39:40.243Z,80.26
2023-01-28T01:40:40.125Z,81.82
2023-01-28T01:41:40.213Z,81.72
2023-01-28T01:42:40.084Z,82.65
2023-01-28T01:43:40.183Z,82.62
2023-01-28T01:44:40.316Z,83.00
2023-01-28T01:45:40.253Z,81.85
2023-01-28T01:46:40.108Z,81.47
2023-01-28T01:47:40.236Z,82.20
2023-01-28T01:48:40.078Z,81.75
2023-01-28T01:49:39.932Z,80.85
2023-01-28T01:50:40.277Z,81.72
2023-01-28T01:51:39.906Z,82.87
2023-01-28T01:52:40.143Z,84.74
2023-01-28T01:53:39.983Z,85.12
2023-01-28T01:54:40.193Z,84.60
2023-01-28T01:55:40.041Z,84.25
2023-01-28T01:56:40.287Z,81.65
2023-01-28T01:57:40.044Z,80.91
2023-01-28T01:58:40.197Z,81.50
2023-01-28T01:59:39.933Z,80.67
2023-01-28T02:00:40.016Z,81.92
2023-01-28T02:01:40.025Z,81.05
2023-01-28T02:02:40.253Z,80.43
2023-01-28T02:03:40.126Z,79.76
2023-01-28T02:04:39.875Z,79.35
2023-01-28T02:05:40.075Z,79.76
2023-01-28T02:06:39.723Z,79.52
2023-01-28T02:07:40.986Z,78.06
2023-01-28T02:08:39.904Z,77.44
2023-01-28T02:09:40.004Z,77.86
2023-01-28T02:10:39.973Z,78.38
2023-01-28T02:11:40.134Z,79.10
2023-01-28T02:12:39.909Z,79.41
2023-01-28T02:13:39.872Z,77.75
2023-01-28T02:14:39.997Z,79.10
2023-01-28T02:15:39.861Z,76.33
2023-01-28T02:16:39.772Z,78.20
2023-01-28T02:17:39.956Z,78.41
2023-01-28T02:18:39.706Z,78.41
2023-01-28T02:19:40.951Z,78.10
2023-01-28T02:20:39.843Z,78.62
2023-01-28T02:21:39.641Z,79.10
2023-01-28T02:22:39.929Z,78.17
2023-01-28T02:23:39.601Z,78.58
2023-01-28T02:24:39.910Z,76.72
2023-01-28T02:25:39.721Z,78.58
2023-01-28T02:26:39.761Z,78.38
2023-01-28T02:27:40.676Z,76.40
2023-01-28T02:28:39.840Z,77.34
2023-01-28T02:29:39.658Z,75.98
2023-01-28T02:30:39.933Z,77.44
2023-01-28T02:31:39.737Z,78.17
2023-01-28T02:32:39.875Z,76.40
2023-01-28T02:33:39.575Z,77.65
2023-01-28T02:34:39.793Z,77.61
2023-01-28T02:35:39.753Z,77.61
2023-01-28T02:36:39.495Z,77.13
2023-01-28T02:37:39.796Z,77.75
2023-01-28T02:38:39.586Z,77.40
2023-01-28T02:39:39.625Z,76.68
2023-01-28T02:40:39.594Z,77.61
2023-01-28T02:41:39.763Z,76.95
2023-01-28T02:42:39.515Z,77.26
2023-01-28T02:43:39.563Z,74.26
2023-01-28T02:44:40.818Z,76.26
2023-01-28T02:45:39.640Z,75.15
2023-01-28T02:46:39.492Z,75.40
2023-01-28T02:47:39.536Z,76.43
2023-01-28T02:48:39.600Z,77.37
2023-01-28T02:49:39.509Z,76.82
2023-01-28T02:50:39.520Z,79.32
2023-01-28T02:51:39.389Z,78.07
2023-01-28T02:52:39.569Z,78.94
2023-01-28T02:53:39.356Z,81.05
2023-01-28T02:54:39.438Z,81.58
2023-01-28T02:55:39.398Z,81.16
2023-01-28T02:56:39.628Z,79.60
2023-01-28T02:57:39.380Z,81.05
2023-01-28T02:58:39.617Z,82.20
2023-01-28T02:59:39.286Z,81.47
2023-01-28T03:00:39.413Z,82.41
2023-01-28T03:01:39.460Z,82.34
2023-01-28T03:02:39.571Z,81.93
2023-01-28T03:03:39.427Z,82.59
2023-01-28T03:04:39.396Z,83.36
2023-01-28T03:05:39.443Z,84.19
2023-01-28T03:06:40.643Z,84.92
2023-01-28T03:07:39.474Z,83.88
2023-01-28T03:08:39.391Z,85.38
2023-01-28T03:09:39.350Z,85.97
2023-01-28T03:10:39.131Z,85.65
2023-01-28T03:11:40.340Z,85.55
2023-01-28T03:12:39.182Z,84.47
2023-01-28T03:13:39.403Z,84.05
2023-01-28T03:14:39.351Z,83.95
2023-01-28T03:15:39.558Z,83.53
2023-01-28T03:16:39.240Z,84.26
2023-01-28T03:17:39.169Z,83.32
2023-01-28T03:18:39.243Z,84.99
2023-01-28T03:19:39.361Z,84.01
2023-01-28T03:20:39.251Z,84.64
2023-01-28T03:21:39.179Z,84.43
2023-01-28T03:22:39.229Z,82.87
2023-01-28T03:23:38.933Z,83.25
2023-01-28T03:24:39.273Z,83.56
2023-01-28T03:25:39.053Z,81.37
2023-01-28T03:26:39.389Z,82.31
2023-01-28T03:27:39.042Z,82.51
2023-01-28T03:28:39.257Z,81.41
2023-01-28T03:29:41.029Z,82.34
2023-01-28T03:30:39.351Z,85.33
2023-01-28T03:31:39.245Z,83.56
2023-01-28T03:32:39.135Z,83.04
2023-01-28T03:33:39.070Z,82.93
2023-01-28T03:34:39.211Z,82.31
2023-01-28T03:35:39.071Z,81.33
2023-01-28T03:36:39.120Z,82.89
2023-01-28T03:37:39.108Z,81.96
2023-01-28T03:38:39.030Z,82.06
2023-01-28T03:39:39.129Z,81.23
2023-01-28T03:40:38.951Z,80.60
2023-01-28T03:41:39.109Z,80.64
2023-01-28T03:42:38.840Z,80.36
2023-01-28T03:43:39.061Z,82.34
2023-01-28T03:44:38.929Z,82.24
2023-01-28T03:45:39.156Z,83.18
2023-01-28T03:46:38.878Z,83.04
2023-01-28T03:47:39.112Z,82.03
2023-01-28T03:48:38.984Z,83.66
2023-01-28T03:49:38.891Z,82.20
2023-01-28T03:50:38.960Z,81.51
2023-01-28T03:51:38.992Z,83.76
2023-01-28T03:52:38.856Z,83.00
2023-01-28T03:53:38.993Z,80.05
2023-01-28T03:54:39.202Z,78.63
2023-01-28T03:55:38.700Z,79.25
2023-01-28T03:56:38.880Z,80.02
2023-01-28T03:57:38.639Z,81.23
2023-01-28T03:58:38.760Z,81.02
2023-01-28T03:59:38.670Z,78.83
2023-01-28T04:00:38.950Z,78.56
2023-01-28T04:01:38.833Z,80.02
2023-01-28T04:02:38.901Z,79.60
2023-01-28T04:03:38.610Z,81.89
2023-01-28T04:04:38.773Z,80.64
2023-01-28T04:05:38.659Z,80.54
2023-01-28T04:06:38.800Z,82.20
2023-01-28T04:07:38.831Z,81.37
2023-01-28T04:08:38.729Z,81.85
2023-01-28T04:09:38.764Z,79.98
2023-01-28T04:10:38.496Z,80.91
2023-01-28T04:11:38.800Z,80.29
2023-01-28T04:12:39.576Z,81.43
2023-01-28T04:13:38.632Z,79.56
2023-01-28T04:14:38.602Z,80.05
2023-01-28T04:15:38.634Z,80.36
2023-01-28T04:16:38.504Z,78.49
2023-01-28T04:17:38.714Z,78.73
2023-01-28T04:18:38.600Z,81.12
2023-01-28T04:19:38.800Z,78.73
2023-01-28T04:20:38.552Z,78.56
2023-01-28T04:21:38.573Z,79.18
2023-01-28T04:22:38.705Z,80.64
2023-01-28T04:23:38.638Z,79.70
2023-01-28T04:24:39.528Z,79.28
2023-01-28T04:25:38.370Z,79.63
2023-01-28T04:26:38.591Z,80.22
2023-01-28T04:27:38.356Z,80.54
2023-01-28T04:28:38.571Z,79.74
2023-01-28T04:29:38.442Z,80.51
2023-01-28T04:30:38.636Z,81.55
2023-01-28T04:31:38.646Z,83.22
2023-01-28T04:32:38.601Z,82.07
2023-01-28T04:33:38.396Z,81.69
2023-01-28T04:34:38.523Z,83.53
2023-01-28T04:35:38.507Z,81.96
2023-01-28T04:36:38.589Z,82.53
2023-01-28T04:37:38.516Z,83.15
2023-01-28T04:38:38.440Z,82.31
2023-01-28T04:39:38.468Z,84.57
2023-01-28T04:40:38.517Z,83.84
2023-01-28T04:41:38.370Z,83.63
2023-01-28T04:42:38.276Z,82.59
2023-01-28T04:43:38.435Z,81.69
2023-01-28T04:44:38.116Z,83.98
2023-01-28T04:45:38.310Z,84.67
2023-01-28T04:46:38.323Z,83.42
2023-01-28T04:47:38.397Z,83.32
2023-01-28T04:48:38.216Z,83.95
2023-01-28T04:49:38.547Z,83.36
2023-01-28T04:50:38.166Z,84.30
2023-01-28T04:51:38.283Z,84.34
2023-01-28T04:52:38.174Z,85.86
2023-01-28T04:53:38.242Z,84.57
2023-01-28T04:54:38.125Z,84.57
2023-01-28T04:55:38.316Z,83.70
2023-01-28T04:56:38.206Z,84.43
2023-01-28T04:57:37.988Z,82.14
2023-01-28T04:58:38.171Z,84.36
2023-01-28T04:59:37.953Z,84.67
2023-01-28T05:00:38.384Z,84.88
2023-01-28T05:01:38.375Z,84.99
2023-01-28T05:02:38.358Z,85.05
2023-01-28T05:03:38.016Z,84.16
2023-01-28T05:04:38.273Z,84.72
2023-01-28T05:05:38.048Z,85.61
2023-01-28T05:06:38.396Z,84.55
2023-01-28T05:07:38.115Z,85.31
2023-01-28T05:08:38.277Z,86.53
2023-01-28T05:09:38.025Z,86.74
2023-01-28T05:10:38.125Z,85.27
2023-01-28T05:11:39.372Z,85.97
2023-01-28T05:12:37.985Z,84.86
2023-01-28T05:13:38.107Z,86.84
2023-01-28T05:14:37.881Z,86.69
2023-01-28T05:15:38.026Z,84.82
2023-01-28T05:16:37.897Z,85.10
2023-01-28T05:17:38.142Z,83.91
2023-01-28T05:18:37.977Z,85.10
2023-01-28T05:19:38.218Z,84.16
2023-01-28T05:20:37.967Z,84.05
2023-01-28T05:21:38.115Z,84.92
2023-01-28T05:22:37.921Z,86.76
2023-01-28T05:23:38.018Z,85.61
2023-01-28T05:24:37.905Z,84.67
2023-01-28T05:25:38.019Z,84.47
2023-01-28T05:26:37.920Z,84.95
2023-01-28T05:27:38.007Z,84.12
2023-01-28T05:28:38.185Z,83.87
2023-01-28T05:29:37.651Z,83.18
2023-01-28T05:30:38.010Z,84.36
2023-01-28T05:31:37.795Z,84.95
2023-01-28T05:32:37.941Z,84.67
2023-01-28T05:33:37.646Z,85.30
2023-01-28T05:34:37.934Z,85.26
2023-01-28T05:35:37.997Z,85.26
2023-01-28T05:36:37.807Z,84.70
2023-01-28T05:37:37.932Z,84.35
2023-01-28T05:38:37.867Z,82.41
2023-01-28T05:39:37.813Z,84.39
2023-01-28T05:40:37.932Z,83.56
2023-01-28T05:41:37.787Z,84.70
2023-01-28T05:42:37.946Z,83.56
2023-01-28T05:43:37.797Z,83.14
2023-01-28T05:44:38.005Z,83.39
2023-01-28T05:45:37.751Z,84.99
2023-01-28T05:46:37.508Z,85.93
2023-01-28T05:47:37.786Z,85.61
2023-01-28T05:48:37.707Z,86.45
2023-01-28T05:49:37.640Z,86.80
2023-01-28T05:50:37.666Z,86.59
2023-01-28T05:51:37.717Z,86.13
2023-01-28T05:52:37.677Z,86.38
2023-01-28T05:53:37.748Z,86.18
2023-01-28T05:54:37.703Z,87.53
2023-01-28T05:55:37.616Z,88.47
2023-01-28T05:56:37.570Z,87.70
2023-01-28T05:57:37.573Z,86.72
2023-01-28T05:58:37.726Z,86.30
2023-01-28T05:59:37.358Z,85.20
2023-01-28T06:00:37.586Z,86.69
2023-01-28T06:01:37.506Z,88.37
2023-01-28T06:02:37.626Z,88.06
2023-01-28T06:03:37.396Z,87.14
2023-01-28T06:04:37.567Z,85.89
2023-01-28T06:05:37.408Z,85.12
2023-01-28T06:06:37.557Z,84.95
2023-01-28T06:07:37.456Z,85.78
2023-01-28T06:08:37.583Z,85.10
2023-01-28T06:09:37.374Z,85.82
2023-01-28T06:10:37.436Z,86.18
2023-01-28T06:11:36.677Z,87.15
2023-01-28T06:12:37.761Z,87.57
2023-01-28T06:13:37.547Z,88.45
2023-01-28T06:14:37.411Z,89.07
2023-01-28T06:15:37.258Z,89.14
2023-01-28T06:16:37.289Z,88.78
2023-01-28T06:17:51.424Z,88.22
2023-01-28T06:18:37.868Z,87.28
2023-01-28T06:19:37.435Z,86.24
2023-01-28T06:20:37.406Z,86.59
2023-01-28T06:21:37.398Z,86.55
2023-01-28T06:22:37.324Z,86.18
2023-01-28T06:23:37.015Z,87.99
2023-01-28T06:24:37.383Z,88.51
2023-01-28T06:25:37.358Z,88.51
2023-01-28T06:26:37.225Z,88.87
2023-01-28T06:27:37.424Z,89.87
2023-01-28T06:28:37.537Z,88.20
2023-01-28T06:29:37.360Z,87.88
2023-01-28T06:30:37.485Z,89.91
2023-01-28T06:31:37.107Z,89.20
2023-01-28T06:32:37.099Z,87.68
2023-01-28T06:33:37.155Z,89.14
2023-01-28T06:34:37.065Z,89.31
2023-01-28T06:35:37.193Z,88.16
2023-01-28T06:36:37.089Z,88.26
2023-01-28T06:37:37.217Z,88.16
2023-01-28T06:38:37.057Z,88.47
2023-01-28T06:39:38.333Z,89.31
2023-01-28T06:40:38.395Z,89.16
2023-01-28T06:41:38.485Z,87.32
2023-01-28T06:42:37.776Z,87.74
2023-01-28T06:43:37.077Z,89.10
2023-01-28T06:44:36.968Z,89.10
2023-01-28T06:45:36.947Z,88.93
2023-01-28T06:46:37.270Z,89.87
2023-01-28T06:47:36.627Z,89.49
2023-01-28T06:48:37.226Z,90.28
2023-01-28T06:49:36.905Z,88.93
2023-01-28T06:50:36.995Z,89.18
2023-01-28T06:51:36.885Z,91.54
2023-01-28T06:52:37.028Z,90.12
2023-01-28T06:53:37.276Z,91.16
2023-01-28T06:54:36.987Z,90.43
2023-01-28T06:55:37.146Z,90.64
2023-01-28T06:56:37.011Z,91.27
2023-01-28T06:57:36.907Z,91.37
2023-01-28T06:58:37.085Z,91.06
2023-01-28T06:59:36.845Z,91.27
2023-01-28T07:00:36.826Z,91.85
2023-01-28T07:01:37.004Z,89.76
2023-01-28T07:02:36.861Z,90.14
2023-01-28T07:03:38.929Z,88.78
2023-01-28T07:04:36.701Z,87.84
2023-01-28T07:05:36.911Z,89.20
2023-01-28T07:06:36.695Z,89.45
2023-01-28T07:07:37.389Z,89.83
2023-01-28T07:08:37.656Z,89.31
2023-01-28T07:09:36.825Z,88.32
2023-01-28T07:10:37.635Z,87.49
2023-01-28T07:11:37.305Z,88.26
2023-01-28T07:12:36.677Z,90.20
2023-01-28T07:13:36.864Z,86.87
2023-01-28T07:14:36.707Z,87.81
2023-01-28T07:15:36.506Z,88.53
2023-01-28T07:16:36.725Z,87.07
2023-01-28T07:17:36.527Z,87.95
2023-01-28T07:18:36.817Z,88.16
2023-01-28T07:19:36.566Z,89.68
2023-01-28T07:20:36.676Z,87.81
2023-01-28T07:21:36.756Z,87.53
2023-01-28T07:22:36.885Z,87.95
2023-01-28T07:23:36.696Z,88.32
2023-01-28T07:24:36.713Z,87.70
2023-01-28T07:25:35.906Z,87.39
2023-01-28T07:26:36.629Z,89.22
2023-01-28T07:27:36.571Z,87.73
2023-01-28T07:28:36.628Z,85.50
2023-01-28T07:29:37.356Z,85.22
2023-01-28T07:30:36.786Z,86.75
2023-01-28T07:31:36.821Z,85.39
2023-01-28T07:32:36.675Z,86.02
2023-01-28T07:33:36.566Z,85.77
2023-01-28T07:34:36.877Z,84.94
2023-01-28T07:35:39.751Z,84.87
2023-01-28T07:36:36.808Z,85.85
2023-01-28T07:37:36.816Z,86.12
2023-01-28T07:38:36.679Z,85.22
2023-01-28T07:39:36.960Z,85.85
2023-01-28T07:40:36.961Z,86.76
2023-01-28T07:41:38.925Z,88.08
2023-01-28T07:42:38.783Z,86.87
2023-01-28T07:43:36.859Z,87.60
2023-01-28T07:44:36.799Z,88.37
2023-01-28T07:45:36.796Z,88.85
2023-01-28T07:46:36.798Z,87.24
2023-01-28T07:47:36.723Z,87.83
2023-01-28T07:48:36.699Z,85.99
2023-01-28T07:49:36.738Z,86.61
2023-01-28T07:50:36.662Z,87.55
2023-01-28T07:51:36.638Z,87.55
2023-01-28T07:52:36.819Z,86.10
2023-01-28T07:53:36.519Z,87.18
2023-01-28T07:54:36.886Z,88.35
2023-01-28T07:55:36.539Z,85.74
2023-01-28T07:56:36.740Z,86.66
2023-01-28T07:57:36.599Z,89.06
2023-01-28T07:58:36.719Z,88.12
2023-01-28T07:59:36.829Z,88.32
2023-01-28T08:00:36.698Z,89.37
2023-01-28T08:01:36.762Z,88.93
2023-01-28T08:02:36.461Z,85.88
2023-01-28T08:03:36.560Z,85.91
2023-01-28T08:04:39.750Z,86.08
2023-01-28T08:05:36.521Z,85.91
2023-01-28T08:06:36.513Z,85.50
2023-01-28T08:07:36.659Z,86.06
2023-01-28T08:08:36.379Z,87.55
2023-01-28T08:09:36.760Z,88.87
2023-01-28T08:10:36.799Z,87.83
2023-01-28T08:11:36.621Z,88.20
2023-01-28T08:12:36.338Z,87.30
2023-01-28T08:13:36.622Z,86.99
2023-01-28T08:14:36.338Z,86.58
2023-01-28T08:15:36.712Z,87.73
2023-01-28T08:16:36.478Z,87.93
2023-01-28T08:17:36.322Z,87.16
2023-01-28T08:18:36.487Z,87.20
2023-01-28T08:19:36.327Z,87.73
2023-01-28T08:20:38.285Z,87.45
2023-01-28T08:21:36.337Z,88.01
2023-01-28T08:22:36.539Z,89.75
2023-01-28T08:23:36.373Z,88.56
2023-01-28T08:24:36.498Z,87.20
2023-01-28T08:25:36.445Z,87.45
2023-01-28T08:26:36.425Z,88.60
2023-01-28T08:27:36.205Z,87.73
2023-01-28T08:28:36.297Z,87.20
2023-01-28T08:29:36.358Z,89.45
2023-01-28T08:30:36.436Z,87.75
2023-01-28T08:31:36.528Z,86.46
2023-01-28T08:32:36.420Z,84.63
2023-01-28T08:33:36.658Z,86.22
2023-01-28T08:34:36.137Z,86.43
2023-01-28T08:35:36.205Z,86.81
2023-01-28T08:36:38.165Z,87.12
2023-01-28T08:37:37.918Z,85.35
2023-01-28T08:38:36.137Z,86.19
2023-01-28T08:39:36.199Z,86.12
2023-01-28T08:40:36.140Z,86.29
2023-01-28T08:41:36.299Z,86.12
2023-01-28T08:42:36.263Z,86.27
2023-01-28T08:43:36.192Z,87.79
2023-01-28T08:44:36.185Z,86.22
2023-01-28T08:45:36.300Z,86.75
2023-01-28T08:46:36.187Z,87.27
2023-01-28T08:47:37.901Z,87.60
2023-01-28T08:48:36.038Z,85.14
2023-01-28T08:49:36.058Z,85.04
2023-01-28T08:50:36.047Z,86.91
2023-01-28T08:51:36.003Z,86.40
2023-01-28T08:52:36.319Z,86.08
2023-01-28T08:53:35.900Z,86.42
2023-01-28T08:54:36.418Z,84.06
2023-01-28T08:55:35.615Z,86.04
2023-01-28T08:56:35.748Z,85.35
2023-01-28T08:57:35.746Z,85.77
2023-01-28T08:58:35.820Z,87.54
2023-01-28T08:59:35.647Z,86.81
2023-01-28T09:00:35.748Z,86.40
2023-01-28T09:01:34.914Z,86.50
2023-01-28T09:02:36.365Z,87.12
2023-01-28T09:03:35.834Z,86.46
2023-01-28T09:04:35.529Z,85.80
2023-01-28T09:05:35.612Z,85.55
2023-01-28T09:06:35.447Z,83.20
2023-01-28T09:07:35.648Z,85.28
2023-01-28T09:08:35.516Z,85.49
2023-01-28T09:09:35.596Z,84.96
2023-01-28T09:10:35.515Z,85.24
2023-01-28T09:11:35.596Z,85.13
2023-01-28T09:12:35.399Z,85.44
2023-01-28T09:13:35.735Z,84.51
2023-01-28T09:14:35.495Z,84.72
2023-01-28T09:15:35.709Z,85.65
2023-01-28T09:16:35.416Z,85.24
2023-01-28T09:17:35.597Z,84.82
2023-01-28T09:18:35.526Z,85.34
2023-01-28T09:19:35.636Z,85.34
2023-01-28T09:20:35.507Z,85.65
2023-01-28T09:21:35.316Z,85.86
2023-01-28T09:22:35.466Z,85.69
2023-01-28T09:23:35.371Z,85.75
2023-01-28T09:24:38.585Z,86.17
2023-01-28T09:25:35.295Z,85.72
2023-01-28T09:26:35.566Z,85.26
2023-01-28T09:27:35.305Z,84.43
2023-01-28T09:28:35.476Z,84.22
2023-01-28T09:29:35.270Z,83.18
2023-01-28T09:30:37.522Z,84.19
2023-01-28T09:31:35.319Z,84.70
2023-01-28T09:32:35.762Z,84.36
2023-01-28T09:33:35.290Z,83.32
2023-01-28T09:34:35.448Z,82.28
2023-01-28T09:35:35.378Z,82.07
2023-01-28T09:36:35.316Z,82.70
2023-01-28T09:37:35.449Z,83.63
2023-01-28T09:38:35.113Z,82.86
2023-01-28T09:39:35.354Z,82.34
2023-01-28T09:40:35.131Z,81.87
2023-01-28T09:41:35.365Z,83.84
2023-01-28T09:42:35.225Z,81.90
2023-01-28T09:43:35.795Z,83.46
2023-01-28T09:44:35.254Z,82.77
2023-01-28T09:45:35.236Z,84.50
2023-01-28T09:46:35.195Z,83.50
2023-01-28T09:47:35.226Z,84.22
2023-01-28T09:48:35.120Z,85.20
2023-01-28T09:49:35.358Z,85.51
2023-01-28T09:50:35.185Z,85.20
2023-01-28T09:51:35.008Z,84.89
2023-01-28T09:52:35.163Z,86.72
2023-01-28T09:53:35.013Z,85.78
2023-01-28T09:54:35.215Z,86.24
2023-01-28T09:55:35.012Z,87.55
2023-01-28T09:56:35.088Z,86.24
2023-01-28T09:57:35.035Z,85.13
2023-01-28T09:58:35.098Z,85.75
2023-01-28T09:59:36.335Z,86.59
2023-01-28T10:00:35.107Z,86.80
2023-01-28T10:01:35.279Z,87.01
2023-01-28T10:02:35.375Z,86.90
2023-01-28T10:03:34.996Z,86.55
2023-01-28T10:04:35.130Z,85.82
2023-01-28T10:05:35.134Z,84.64
2023-01-28T10:06:35.038Z,85.78
2023-01-28T10:07:35.174Z,85.12
2023-01-28T10:08:34.926Z,84.43
2023-01-28T10:09:34.889Z,85.26
2023-01-28T10:10:34.885Z,85.85
2023-01-28T10:11:34.981Z,84.36
2023-01-28T10:12:34.817Z,85.25
2023-01-28T10:13:34.983Z,82.82
2023-01-28T10:14:36.249Z,82.93
2023-01-28T10:15:35.254Z,81.89
2023-01-28T10:16:34.809Z,82.48
2023-01-28T10:17:35.196Z,80.61
2023-01-28T10:18:34.789Z,80.54
2023-01-28T10:19:35.014Z,83.41
2023-01-28T10:20:35.152Z,82.48
2023-01-28T10:21:34.965Z,80.99
2023-01-28T10:22:34.836Z,81.34
2023-01-28T10:23:34.060Z,80.30
2023-01-28T10:24:34.966Z,80.71
2023-01-28T10:27:10.598Z,81.79
2023-01-28T10:28:10.468Z,83.51
2023-01-28T10:29:10.602Z,81.75
2023-01-28T10:30:10.469Z,80.61
2023-01-28T10:31:10.716Z,80.40
2023-01-28T10:32:10.770Z,81.34
2023-01-28T10:33:10.578Z,82.23
2023-01-28T10:34:10.540Z,82.54
2023-01-28T10:39:29.155Z,81.54
2023-01-28T10:59:09.525Z,84.74
2023-01-28T11:00:09.195Z,83.81
2023-01-28T11:01:09.451Z,88.16
2023-01-28T11:10:14.309Z,92.18
2023-01-28T11:11:14.209Z,96.42
2023-01-28T11:21:03.291Z,91.03
2023-01-28T11:22:02.922Z,89.48
2023-01-28T11:23:02.616Z,89.83
2023-01-28T11:24:09.317Z,91.49
2023-01-28T11:25:03.039Z,92.74
2023-01-28T11:26:02.782Z,92.01
2023-01-28T11:27:02.794Z,93.73
2023-01-28T11:28:02.987Z,95.18
2023-01-28T11:29:02.954Z,95.18
2023-01-28T11:30:02.715Z,96.05
2023-01-28T11:31:03.229Z,96.15
2023-01-28T11:32:24.514Z,93.56
2023-01-28T11:33:04.224Z,96.57
2023-01-28T11:34:24.215Z,96.36
2023-01-28T11:35:02.707Z,95.07
2023-01-28T11:36:24.214Z,97.25
2023-01-28T11:37:02.699Z,94.29
2023-01-28T11:38:24.533Z,94.81
2023-01-28T11:39:01.871Z,95.22
2023-01-28T11:40:25.169Z,96.98
2023-01-28T11:41:01.863Z,97.09
2023-01-28T11:42:24.067Z,91.85
2023-01-28T11:43:02.597Z,94.43
2023-01-28T11:44:02.483Z,94.12
2023-01-28T11:45:03.532Z,95.78
2023-01-28T11:46:05.227Z,91.78
2023-01-28T11:47:02.352Z,93.02
2023-01-28T11:48:03.216Z,93.44
2023-01-28T11:54:27.323Z,95.50
2023-01-28T11:55:49.304Z,94.26
2023-01-28T11:56:28.925Z,93.53
2023-01-28T11:57:49.584Z,94.26
2023-01-28T11:58:27.738Z,91.35
2023-01-28T11:59:49.641Z,89.83
2023-01-28T12:00:28.037Z,91.91
2023-01-28T12:01:49.507Z,95.36
2023-01-28T12:02:26.989Z,92.24
2023-01-28T12:03:49.313Z,89.17
2023-01-28T12:04:27.822Z,92.03
2023-01-28T12:05:50.138Z,89.61
2023-01-28T12:06:49.384Z,88.40
2023-01-28T12:07:49.265Z,87.61
2023-01-28T12:08:49.105Z,89.96
2023-01-28T12:09:49.315Z,89.86
2023-01-28T12:10:50.187Z,89.48
2023-01-28T12:11:49.226Z,88.96
2023-01-28T12:12:49.116Z,89.11
2023-01-28T12:13:49.234Z,91.49
2023-01-28T12:14:49.073Z,91.08
2023-01-28T12:15:49.761Z,92.53
2023-01-28T12:16:49.304Z,92.59
2023-01-28T12:17:49.169Z,91.70
2023-01-28T12:18:48.793Z,91.60
2023-01-28T12:19:48.676Z,91.80
